Terminal Aerodrome Forecast
Issued by NWS Twin Cities, MN

Home | Current Version | Previous Version | Text Only | Print | Product List | Glossary On
Versions: 1 2 3 4 5 6 7 8 9 10 11 12 13 14 15 16 17
000
FTUS43 KMPX 242320
TAFSTC
TAF
KSTC 242320Z 2500/2524 06005KT P6SM OVC015
     FM250400 03006KT P6SM OVC015
     FM251000 36010KT 2SM -SN OVC012
     FM251700 35011G20KT 6SM -SN BR OVC015
     FM252000 34010G19KT P6SM OVC015=

USA.gov is the U.S. government's official web portal to all federal, state and local government web resources and services.